ETNW

Wunstorf Airport

Germany
METAR ETNW 191420Z 24009KT 9999 -SHRA SCT010TCU BKN030 04/02 Q1006 BLU
Observed Flight Rules
Jan-19 @ 14:20 UTC (an hour ago) Marginal Visual Flight Rules
Wind Visibility Clouds Conditions
240° at 9 knots 10,000+ meters
  • Scattered at 1,000' AGL
  • Broken at 3,000' AGL
  • Light Rain
Temperatures Readings
Current 4°C / 39°F
Dewpoint 2°C / 36°F
Humidity 87%
Altimeter 29.7" Hg
Pressure 1006 hPa
Elevation 70
METAR ETNW 191420Z 24009KT 9999 -SHRA SCT010TCU BKN030 04/02 Q1006 BLU
Observed Flight Rules
Jan-19 @ 14:20 UTC
(an hour ago)
MVFR
Wind Visibility
240° at 9 knots 10,000+ meters
Clouds
  • Scattered at 1,000' AGL
  • Broken at 3,000' AGL
Conditions
  • Light Rain
Temperature Dewpoint
4°C / 39°F 2°C / 36°F
Humidity Altimeter Pressure
87% 29.7" Hg 1006 hPa